Time;durP1;ratioP1;P1;durP2;ratioP2;P2;SDS_P1;SDS_P2;PMS_P1;PMS_P2;Temp;Humidity;BMP_temperature;BMP_pressure;BME280_temperature;BME280_humidity;BME280_pressure;Samples;Min_cycle;Max_cycle;Signal;HPM_P1;HPM_P2
2024/03/09 00:00:59;;;;;;;47.17;20.92;;;5.40;99.10;;;;;;5081800;28;20039;-69
2024/03/09 00:03:26;;;;;;;45.83;21.27;;;5.40;99.30;;;;;;5068310;28;20028;-69
2024/03/09 00:05:52;;;;;;;51.08;21.98;;;5.40;99.30;;;;;;5081867;28;20488;-69
2024/03/09 00:08:18;;;;;;;48.60;23.45;;;5.40;99.40;;;;;;5082260;28;20381;-69
2024/03/09 00:10:44;;;;;;;53.67;23.65;;;5.30;99.60;;;;;;5062251;28;20036;-69
2024/03/09 00:13:10;;;;;;;49.95;22.08;;;5.20;99.80;;;;;;5080877;28;20037;-69
2024/03/09 00:15:36;;;;;;;53.33;22.20;;;5.20;99.90;;;;;;5080467;28;20024;-69
2024/03/09 00:18:02;;;;;;;56.40;23.05;;;5.20;99.90;;;;;;5066340;28;20050;-68
2024/03/09 00:20:35;;;;;;;52.17;23.15;;;5.20;99.90;;;;;;5078263;28;20028;-69
2024/03/09 00:23:01;;;;;;;55.55;24.45;;;5.20;99.90;;;;;;5064659;28;20068;-69
2024/03/09 00:25:31;;;;;;;54.63;23.15;;;5.20;99.90;;;;;;5073285;28;20024;-69
2024/03/09 00:27:57;;;;;;;56.17;23.58;;;5.10;99.90;;;;;;5080762;28;20038;-69
2024/03/09 00:30:29;;;;;;;55.42;23.88;;;5.10;99.90;;;;;;5075015;28;20135;-69
2024/03/09 00:32:58;;;;;;;55.83;23.45;;;5.20;99.90;;;;;;5078565;28;20023;-69
2024/03/09 00:35:25;;;;;;;55.53;24.25;;;5.10;99.90;;;;;;5073112;28;20079;-69
2024/03/09 00:37:52;;;;;;;54.45;24.23;;;5.10;99.90;;;;;;5070110;28;20133;-69
2024/03/09 00:40:17;;;;;;;58.80;24.60;;;5.10;99.90;;;;;;5079812;28;20032;-69
2024/03/09 00:42:46;;;;;;;59.75;25.10;;;5.20;99.90;;;;;;5061782;28;20500;-69
2024/03/09 00:45:15;;;;;;;56.00;24.92;;;5.00;99.90;;;;;;5051879;28;20741;-69
2024/03/09 00:47:45;;;;;;;47.28;23.30;;;5.00;99.90;;;;;;5083859;28;20036;-69
2024/03/09 00:50:11;;;;;;;60.65;25.92;;;5.00;99.90;;;;;;5077931;28;20040;-69
2024/03/09 00:52:37;;;;;;;55.13;25.67;;;5.00;99.90;;;;;;5077615;28;20040;-69
2024/03/09 00:55:10;;;;;;;52.38;23.30;;;5.00;99.90;;;;;;5078401;28;20043;-69
2024/03/09 00:57:39;;;;;;;58.13;24.35;;;5.00;99.90;;;;;;5079991;28;20020;-68
2024/03/09 01:00:11;;;;;;;61.15;25.65;;;5.00;99.90;;;;;;5082598;28;20036;-69
2024/03/09 01:02:38;;;;;;;53.45;24.38;;;5.00;99.90;;;;;;5060269;28;20105;-69
2024/03/09 01:05:04;;;;;;;56.47;24.70;;;4.90;99.90;;;;;;5069039;28;20028;-69
2024/03/09 01:07:30;;;;;;;59.50;24.60;;;4.90;99.90;;;;;;5071974;28;20103;-69
2024/03/09 01:09:56;;;;;;;56.00;25.35;;;4.90;99.90;;;;;;5078396;28;20616;-69
2024/03/09 01:12:21;;;;;;;54.80;24.67;;;4.80;99.90;;;;;;5039154;28;20119;-69
2024/03/09 01:14:48;;;;;;;60.60;24.65;;;4.80;99.90;;;;;;5086531;28;20044;-69
2024/03/09 01:17:17;;;;;;;52.00;23.65;;;4.90;99.90;;;;;;5078631;28;20037;-69
2024/03/09 01:19:45;;;;;;;64.13;27.23;;;4.90;99.90;;;;;;5078724;28;20040;-69
2024/03/09 01:22:12;;;;;;;57.78;24.63;;;4.80;99.90;;;;;;5077209;28;20032;-69
2024/03/09 01:24:39;;;;;;;62.22;26.73;;;4.80;99.90;;;;;;5079467;28;20031;-69
2024/03/09 01:27:05;;;;;;;58.60;26.30;;;4.80;99.90;;;;;;5079822;28;20048;-69
2024/03/09 01:29:31;;;;;;;59.42;26.60;;;4.80;99.90;;;;;;5068199;28;20043;-69
2024/03/09 01:32:01;;;;;;;58.40;26.27;;;4.80;99.90;;;;;;5081667;28;20039;-69
2024/03/09 01:34:27;;;;;;;60.28;26.05;;;4.70;99.90;;;;;;5080870;28;20413;-69
2024/03/09 01:36:53;;;;;;;58.83;26.45;;;4.70;99.90;;;;;;5056432;28;20654;-68
2024/03/09 01:39:19;;;;;;;56.70;25.65;;;4.70;99.90;;;;;;5077363;28;20060;-69
2024/03/09 01:41:45;;;;;;;55.63;24.65;;;4.70;99.90;;;;;;5074023;28;20059;-69
2024/03/09 01:44:10;;;;;;;59.53;26.50;;;4.60;99.90;;;;;;5072500;28;20765;-69
2024/03/09 01:46:36;;;;;;;55.55;24.90;;;4.60;99.90;;;;;;5060687;28;20541;-68
2024/03/09 01:49:02;;;;;;;56.85;24.67;;;4.60;99.90;;;;;;5060057;28;20040;-68
2024/03/09 01:51:28;;;;;;;57.38;25.23;;;4.60;99.90;;;;;;5078612;28;20511;-68
2024/03/09 01:53:54;;;;;;;56.92;24.75;;;4.60;99.90;;;;;;5073616;28;20036;-68
2024/03/09 01:56:25;;;;;;;61.80;26.58;;;4.60;99.90;;;;;;5055731;28;20193;-69
2024/03/09 01:58:51;;;;;;;66.53;26.90;;;4.60;99.90;;;;;;5072641;28;20063;-68
2024/03/09 02:01:23;;;;;;;60.60;27.45;;;4.60;99.90;;;;;;5072137;28;20500;-69
2024/03/09 02:03:54;;;;;;;60.92;26.33;;;4.60;99.90;;;;;;5055163;28;20036;-69
2024/03/09 02:06:21;;;;;;;65.93;27.33;;;4.50;99.90;;;;;;5075976;28;20397;-68
2024/03/09 02:08:48;;;;;;;67.10;27.07;;;4.50;99.90;;;;;;5078454;28;20043;-68
2024/03/09 02:11:14;;;;;;;64.55;28.05;;;4.50;99.90;;;;;;5075279;28;20374;-68
2024/03/09 02:13:41;;;;;;;61.88;27.15;;;4.40;99.90;;;;;;5078067;28;20028;-69
2024/03/09 02:16:07;;;;;;;65.57;26.58;;;4.40;99.90;;;;;;5070473;28;20037;-70
2024/03/09 02:18:33;;;;;;;62.83;26.13;;;4.30;99.90;;;;;;5071965;28;20035;-69
2024/03/09 02:21:00;;;;;;;65.68;25.65;;;4.40;99.90;;;;;;5070660;28;20634;-68
2024/03/09 02:23:30;;;;;;;62.55;26.08;;;4.30;99.90;;;;;;5075074;28;20047;-69
2024/03/09 02:25:58;;;;;;;62.78;27.45;;;4.30;99.90;;;;;;5056451;28;20479;-69
2024/03/09 02:28:27;;;;;;;63.60;26.58;;;4.30;99.90;;;;;;5074672;28;20101;-69
2024/03/09 02:30:54;;;;;;;56.42;25.40;;;4.30;99.90;;;;;;5076723;28;20040;-69
2024/03/09 02:33:20;;;;;;;59.58;26.25;;;4.30;99.90;;;;;;5055871;28;20031;-69
2024/03/09 02:35:47;;;;;;;55.83;25.30;;;4.30;99.90;;;;;;5077132;28;20166;-69
2024/03/09 02:38:13;;;;;;;57.35;25.48;;;4.30;99.90;;;;;;5084071;28;20028;-68
2024/03/09 02:40:39;;;;;;;58.88;25.23;;;4.20;99.90;;;;;;5075300;28;20043;-69
2024/03/09 02:43:06;;;;;;;64.72;26.05;;;4.30;99.90;;;;;;5077239;28;20444;-69
2024/03/09 02:45:32;;;;;;;60.47;26.77;;;4.30;99.90;;;;;;5077053;28;20016;-69
2024/03/09 02:47:58;;;;;;;65.00;26.52;;;4.20;99.90;;;;;;5082748;28;20458;-69
2024/03/09 02:50:26;;;;;;;63.22;27.10;;;4.20;99.90;;;;;;5077877;28;20099;-69
2024/03/09 02:52:52;;;;;;;;;;;4.20;99.90;;;;;;5067948;28;20032;-68
2024/03/09 02:55:18;;;;;;;67.80;25.42;;;4.20;99.90;;;;;;5083592;28;19920;-68
2024/03/09 02:57:43;;;;;;;65.82;28.38;;;4.20;99.90;;;;;;5084528;28;20039;-69
2024/03/09 03:00:11;;;;;;;64.22;25.73;;;4.10;99.90;;;;;;5075852;28;20036;-69
2024/03/09 03:05:25;;;;;;;64.25;25.80;;;4.10;99.90;;;;;;5076865;28;20060;-68
2024/03/09 03:07:51;;;;;;;69.93;28.38;;;4.10;99.90;;;;;;5064044;28;20032;-69
2024/03/09 03:10:18;;;;;;;66.80;27.38;;;4.10;99.90;;;;;;5089122;28;20040;-68
2024/03/09 03:12:45;;;;;;;63.00;26.95;;;4.10;99.90;;;;;;5074008;28;20060;-69
2024/03/09 03:15:14;;;;;;;58.72;26.48;;;4.10;99.90;;;;;;5058576;28;20819;-68
2024/03/09 03:17:39;;;;;;;57.53;25.17;;;4.10;99.90;;;;;;5080966;28;20036;-69
2024/03/09 03:20:09;;;;;;;64.03;26.75;;;4.00;99.90;;;;;;5070412;28;20028;-69
2024/03/09 03:22:37;;;;;;;62.58;27.52;;;4.00;99.90;;;;;;5083613;28;20046;-68
2024/03/09 03:25:04;;;;;;;64.78;26.77;;;4.00;99.90;;;;;;5077241;28;20048;-68
2024/03/09 03:27:29;;;;;;;65.88;26.42;;;4.00;99.90;;;;;;5062543;28;20039;-69
2024/03/09 03:29:56;;;;;;;68.55;26.40;;;4.00;99.90;;;;;;5075564;28;20442;-68
2024/03/09 03:32:22;;;;;;;63.95;25.55;;;3.90;99.90;;;;;;5069087;28;20472;-69
2024/03/09 03:34:49;;;;;;;61.97;26.42;;;3.90;99.90;;;;;;5073844;28;20032;-69
2024/03/09 03:37:17;;;;;;;63.47;26.73;;;3.90;99.90;;;;;;5070501;28;20040;-69
2024/03/09 03:39:43;;;;;;;66.28;26.25;;;3.90;99.90;;;;;;5089005;28;20035;-68
2024/03/09 03:42:09;;;;;;;62.80;28.25;;;3.90;99.90;;;;;;5059533;28;20028;-69
2024/03/09 03:44:35;;;;;;;66.13;28.02;;;3.80;99.90;;;;;;5076924;28;20035;-68
2024/03/09 03:47:01;;;;;;;58.85;25.85;;;3.80;99.90;;;;;;5081399;28;20064;-68
2024/03/09 03:49:27;;;;;;;64.72;28.00;;;3.80;99.90;;;;;;5087588;28;20120;-69
2024/03/09 03:51:55;;;;;;;55.55;25.38;;;3.80;99.90;;;;;;5083465;28;20035;-68
2024/03/09 03:54:22;;;;;;;61.90;26.42;;;3.80;99.90;;;;;;5078838;28;20117;-69
2024/03/09 03:56:48;;;;;;;62.03;24.50;;;3.70;99.90;;;;;;5055963;28;20052;-68
2024/03/09 03:59:13;;;;;;;54.28;24.20;;;3.70;99.90;;;;;;5076497;28;20042;-68
2024/03/09 04:01:39;;;;;;;67.07;27.80;;;3.70;99.90;;;;;;5075519;28;20024;-69
2024/03/09 04:04:05;;;;;;;66.95;27.40;;;3.60;99.90;;;;;;5079632;28;20027;-68
2024/03/09 04:06:30;;;;;;;66.78;27.73;;;3.60;99.90;;;;;;5078287;28;20035;-69
2024/03/09 04:08:57;;;;;;;66.53;26.85;;;3.60;99.90;;;;;;5080349;28;20046;-69
2024/03/09 04:11:26;;;;;;;67.00;26.33;;;3.60;99.90;;;;;;5078797;28;20463;-69
2024/03/09 04:13:52;;;;;;;65.93;25.83;;;3.60;99.90;;;;;;5076568;28;20385;-69
2024/03/09 04:16:19;;;;;;;72.95;28.50;;;3.50;99.90;;;;;;5085593;28;20028;-69
2024/03/09 04:18:44;;;;;;;66.20;27.63;;;3.50;99.90;;;;;;5075286;28;20036;-69
2024/03/09 04:21:12;;;;;;;58.78;27.00;;;3.50;99.90;;;;;;5070377;28;20497;-69
2024/03/09 04:23:38;;;;;;;67.97;26.35;;;3.50;99.90;;;;;;5076074;28;20036;-69
2024/03/09 04:26:04;;;;;;;66.28;27.65;;;3.50;99.90;;;;;;5078210;28;20578;-69
2024/03/09 04:28:30;;;;;;;61.55;28.20;;;3.50;99.90;;;;;;5077102;28;20117;-69
2024/03/09 04:30:56;;;;;;;58.08;26.63;;;3.40;99.90;;;;;;5070506;28;20052;-68
2024/03/09 04:33:22;;;;;;;57.88;25.35;;;3.40;99.90;;;;;;5074451;28;20024;-69
2024/03/09 04:35:48;;;;;;;60.47;25.70;;;3.40;99.90;;;;;;5075783;28;20040;-68
2024/03/09 04:38:14;;;;;;;64.40;26.58;;;3.40;99.90;;;;;;5075935;28;20033;-69
2024/03/09 04:40:43;;;;;;;67.65;27.00;;;3.40;99.90;;;;;;5076197;28;20116;-69
2024/03/09 04:43:09;;;;;;;59.92;26.15;;;3.30;99.90;;;;;;5067155;28;20106;-68
2024/03/09 04:45:35;;;;;;;66.40;27.90;;;3.30;99.90;;;;;;5052909;28;20090;-68
2024/03/09 04:48:03;;;;;;;56.33;24.67;;;3.40;99.90;;;;;;5055351;28;20029;-68
2024/03/09 04:50:29;;;;;;;63.15;27.33;;;3.30;99.90;;;;;;5077908;28;20397;-69
2024/03/09 04:52:55;;;;;;;65.50;25.50;;;3.30;99.90;;;;;;5076007;28;20039;-69
2024/03/09 04:55:23;;;;;;;58.70;26.10;;;3.30;99.90;;;;;;5073050;28;20523;-68
2024/03/09 04:57:50;;;;;;;62.10;26.90;;;3.30;99.90;;;;;;5083923;28;20069;-69
2024/03/09 05:00:16;;;;;;;61.35;26.08;;;3.20;99.90;;;;;;5078214;28;20021;-69
2024/03/09 05:02:46;;;;;;;64.82;27.67;;;3.20;99.90;;;;;;5074360;28;20051;-68
2024/03/09 05:05:13;;;;;;;64.53;26.48;;;3.20;99.90;;;;;;5062816;28;20033;-68
2024/03/09 05:07:43;;;;;;;63.30;26.77;;;3.10;99.90;;;;;;5040355;28;20548;-69
2024/03/09 05:10:09;;;;;;;61.70;27.15;;;3.10;99.90;;;;;;5054929;28;20041;-68
2024/03/09 05:12:36;;;;;;;70.55;26.70;;;3.00;99.90;;;;;;5051190;28;20032;-69
2024/03/09 05:15:02;;;;;;;64.65;25.85;;;3.00;99.90;;;;;;5072154;28;20023;-68
2024/03/09 05:17:28;;;;;;;64.80;26.00;;;3.00;99.90;;;;;;5073776;28;20036;-69
2024/03/09 05:19:53;;;;;;;59.88;25.90;;;3.00;99.90;;;;;;5078732;28;20034;-69
2024/03/09 05:22:19;;;;;;;60.83;25.35;;;3.00;99.90;;;;;;5067291;28;20036;-69
2024/03/09 05:24:45;;;;;;;58.55;25.00;;;2.90;99.90;;;;;;5076980;28;20030;-69
2024/03/09 05:27:10;;;;;;;58.67;25.60;;;2.90;99.90;;;;;;5053376;28;20025;-69
2024/03/09 05:29:36;;;;;;;66.88;27.40;;;2.90;99.90;;;;;;5074187;28;20615;-66
2024/03/09 05:32:02;;;;;;;65.38;26.15;;;2.80;99.90;;;;;;5063089;28;20052;-66
2024/03/09 05:34:28;;;;;;;68.13;28.63;;;2.80;99.90;;;;;;5057284;28;20039;-67
2024/03/09 05:36:55;;;;;;;62.65;27.40;;;2.80;99.90;;;;;;5051700;28;20045;-67
2024/03/09 05:39:21;;;;;;;59.78;26.38;;;2.80;99.90;;;;;;5055201;28;20037;-66
2024/03/09 05:41:49;;;;;;;60.38;26.42;;;2.80;99.90;;;;;;5055436;28;20035;-66
2024/03/09 05:44:15;;;;;;;69.07;26.55;;;2.70;99.90;;;;;;5053538;28;20123;-67
2024/03/09 05:46:41;;;;;;;63.50;26.30;;;2.70;99.90;;;;;;5050909;28;20132;-66
2024/03/09 05:49:08;;;;;;;62.42;26.90;;;2.70;99.90;;;;;;5051094;28;20132;-67
2024/03/09 05:51:33;;;;;;;68.00;27.80;;;2.60;99.90;;;;;;5052085;28;20042;-67
2024/03/09 05:53:59;;;;;;;63.60;25.27;;;2.60;99.90;;;;;;5038670;28;20036;-67
2024/03/09 05:56:25;;;;;;;62.92;26.73;;;2.70;99.90;;;;;;5058136;28;20040;-67
2024/03/09 05:58:50;;;;;;;62.38;26.35;;;2.70;99.90;;;;;;5050518;28;20041;-67
2024/03/09 06:01:16;;;;;;;64.07;27.33;;;2.60;99.90;;;;;;5055033;28;20095;-67
2024/03/09 06:03:42;;;;;;;64.03;26.00;;;2.60;99.90;;;;;;5038612;28;20524;-67
2024/03/09 06:06:09;;;;;;;60.33;26.23;;;2.60;99.90;;;;;;5055839;28;20445;-67
2024/03/09 06:08:36;;;;;;;58.25;26.70;;;2.60;99.90;;;;;;5077138;28;20131;-67
2024/03/09 06:11:02;;;;;;;54.10;24.35;;;2.60;99.90;;;;;;5075550;28;20385;-67
2024/03/09 06:13:30;;;;;;;61.75;24.70;;;2.60;99.90;;;;;;5087120;28;20124;-67
2024/03/09 06:15:55;;;;;;;61.00;25.80;;;2.60;99.90;;;;;;5086711;28;20032;-67
2024/03/09 06:18:23;;;;;;;68.28;27.80;;;2.60;99.90;;;;;;5074525;28;20507;-67
2024/03/09 06:20:49;;;;;;;57.00;24.63;;;2.60;99.90;;;;;;5065030;28;20056;-67
2024/03/09 06:23:15;;;;;;;63.95;26.42;;;2.60;99.90;;;;;;5082558;28;20024;-68
2024/03/09 06:25:41;;;;;;;60.75;24.92;;;2.60;99.90;;;;;;5065544;28;20060;-67
2024/03/09 06:28:12;;;;;;;59.10;25.02;;;2.60;99.90;;;;;;5084109;28;20025;-68
2024/03/09 06:30:38;;;;;;;56.67;24.67;;;2.60;99.90;;;;;;5074913;28;20716;-67
2024/03/09 06:33:03;;;;;;;59.20;24.88;;;2.70;99.90;;;;;;5059251;28;20024;-68
2024/03/09 06:35:31;;;;;;;58.65;25.52;;;2.70;99.90;;;;;;5042273;28;20142;-67
2024/03/09 06:38:10;;;;;;;;;;;2.70;99.90;;;;;;5061209;28;20037;-67
2024/03/09 06:40:39;;;;;;;55.70;23.30;;;2.70;99.90;;;;;;5066965;28;19963;-68
2024/03/09 06:43:09;;;;;;;61.65;24.38;;;2.70;99.90;;;;;;5074038;28;20463;-68
2024/03/09 06:45:39;;;;;;;57.75;24.15;;;2.70;99.90;;;;;;5078699;28;20024;-68
2024/03/09 06:48:06;;;;;;;65.80;26.70;;;2.70;99.90;;;;;;5055988;28;20032;-67
2024/03/09 06:50:33;;;;;;;55.88;23.63;;;2.80;99.90;;;;;;5076788;28;20248;-67
2024/03/09 06:52:59;;;;;;;59.43;25.00;;;2.80;99.90;;;;;;5078242;28;20048;-69
2024/03/09 06:55:26;;;;;;;54.28;22.77;;;2.90;99.90;;;;;;5059832;28;20032;-69
2024/03/09 06:57:56;;;;;;;59.47;24.58;;;2.90;99.90;;;;;;5068421;28;20401;-69
2024/03/09 07:00:22;;;;;;;56.28;25.02;;;2.90;99.90;;;;;;5083232;28;20044;-69
2024/03/09 07:02:49;;;;;;;63.58;26.40;;;2.90;99.90;;;;;;5074729;28;20047;-69
2024/03/09 07:05:15;;;;;;;56.50;24.27;;;2.90;99.90;;;;;;5073204;28;20154;-68
2024/03/09 07:07:41;;;;;;;50.58;22.98;;;3.00;99.90;;;;;;5083625;28;20646;-68
2024/03/09 07:10:12;;;;;;;61.22;25.35;;;3.00;99.90;;;;;;5078497;28;20068;-68
2024/03/09 07:12:40;;;;;;;61.03;24.08;;;3.10;99.90;;;;;;5063960;28;20151;-68
2024/03/09 07:15:16;;;;;;;58.83;23.77;;;3.10;99.90;;;;;;5079483;28;20029;-69
2024/03/09 07:17:48;;;;;;;61.85;23.83;;;3.20;99.90;;;;;;5082939;28;20112;-69
2024/03/09 07:20:16;;;;;;;58.58;24.38;;;3.20;99.90;;;;;;5077114;28;20036;-68
2024/03/09 07:22:43;;;;;;;60.63;24.83;;;3.30;99.90;;;;;;5077913;28;20044;-68
2024/03/09 07:25:13;;;;;;;52.50;23.30;;;3.30;99.90;;;;;;5077739;28;20036;-67
2024/03/09 07:27:43;;;;;;;55.42;23.83;;;3.30;99.90;;;;;;5080113;28;20113;-68
2024/03/09 07:30:11;;;;;;;53.75;23.08;;;3.40;99.90;;;;;;5083863;28;20039;-68
2024/03/09 07:32:37;;;;;;;58.92;24.75;;;3.40;99.90;;;;;;5075139;28;20024;-68
2024/03/09 07:35:06;;;;;;;66.68;26.63;;;3.50;99.90;;;;;;5083302;28;20107;-68
2024/03/09 07:37:31;;;;;;;56.65;23.85;;;3.50;99.90;;;;;;5079311;28;20040;-68
2024/03/09 07:39:57;;;;;;;52.13;22.80;;;3.60;99.90;;;;;;5084547;28;20390;-68
2024/03/09 07:42:23;;;;;;;53.97;23.20;;;3.70;99.90;;;;;;5081358;28;20120;-68
2024/03/09 07:44:50;;;;;;;52.80;23.10;;;3.70;99.90;;;;;;5059509;28;20163;-68
2024/03/09 07:47:16;;;;;;;66.55;24.65;;;3.80;99.90;;;;;;5083039;28;20089;-68
2024/03/09 07:49:41;;;;;;;47.47;22.13;;;3.90;99.90;;;;;;5088402;28;20048;-68
2024/03/09 07:52:07;;;;;;;52.80;24.02;;;3.90;99.90;;;;;;5072978;28;20046;-68
2024/03/09 07:54:33;;;;;;;54.53;23.52;;;4.00;99.90;;;;;;5082982;28;20038;-68
2024/03/09 07:56:58;;;;;;;61.55;22.80;;;4.00;99.90;;;;;;5074256;28;20454;-68
2024/03/09 07:59:25;;;;;;;55.03;23.60;;;4.10;99.90;;;;;;5065117;28;20068;-68
2024/03/09 08:01:50;;;;;;;67.32;23.23;;;4.20;99.90;;;;;;5080486;28;20023;-68
2024/03/09 08:04:17;;;;;;;51.13;22.85;;;4.30;99.90;;;;;;5061414;28;20070;-69
2024/03/09 08:06:47;;;;;;;54.70;22.92;;;4.30;99.90;;;;;;5074892;28;20880;-68
2024/03/09 08:09:13;;;;;;;54.22;23.02;;;4.40;99.90;;;;;;5058054;28;20035;-68
2024/03/09 08:11:39;;;;;;;52.92;23.13;;;4.50;99.90;;;;;;5077728;28;20029;-68
2024/03/09 08:14:06;;;;;;;56.10;24.05;;;4.60;99.90;;;;;;5077721;28;20025;-68
2024/03/09 08:16:33;;;;;;;51.45;22.00;;;4.60;99.90;;;;;;5065358;28;20682;-68
2024/03/09 08:18:58;;;;;;;51.25;22.60;;;4.70;99.90;;;;;;5079630;28;20540;-69
2024/03/09 08:21:24;;;;;;;54.22;22.67;;;4.70;99.90;;;;;;5060067;28;20080;-68
2024/03/09 08:23:52;;;;;;;52.53;22.55;;;4.80;99.90;;;;;;5073778;28;20052;-68
2024/03/09 08:26:18;;;;;;;49.72;21.73;;;4.90;99.90;;;;;;5073960;28;20043;-69
2024/03/09 08:28:44;;;;;;;47.00;21.52;;;4.90;99.90;;;;;;5075271;28;20033;-68
2024/03/09 08:31:09;;;;;;;51.50;21.50;;;5.00;99.90;;;;;;5082239;28;20059;-68
2024/03/09 08:33:35;;;;;;;55.47;22.08;;;5.10;99.90;;;;;;5081833;28;20027;-69
2024/03/09 08:36:02;;;;;;;52.28;23.52;;;5.20;99.90;;;;;;5083467;28;20389;-69
2024/03/09 08:38:28;;;;;;;44.38;20.38;;;5.30;99.90;;;;;;5080796;28;20032;-68
2024/03/09 08:40:54;;;;;;;50.88;21.13;;;5.40;99.90;;;;;;5079771;28;20040;-69
2024/03/09 08:43:19;;;;;;;52.80;23.25;;;5.50;99.90;;;;;;5082306;28;20028;-69
2024/03/09 08:45:47;;;;;;;45.58;20.77;;;5.60;99.90;;;;;;5078688;28;20401;-69
2024/03/09 08:48:13;;;;;;;44.95;21.23;;;5.70;99.90;;;;;;5081374;28;20025;-68
2024/03/09 08:50:39;;;;;;;46.95;21.13;;;5.80;99.90;;;;;;5082833;28;20020;-69
2024/03/09 08:53:05;;;;;;;48.97;22.35;;;5.80;99.90;;;;;;5078562;28;20116;-69
2024/03/09 08:55:32;;;;;;;44.55;19.80;;;5.90;99.90;;;;;;5084333;28;20028;-68
2024/03/09 08:58:01;;;;;;;45.92;21.58;;;5.90;99.90;;;;;;5074836;28;20032;-69
2024/03/09 09:00:26;;;;;;;47.90;21.17;;;6.00;99.90;;;;;;5061268;28;20451;-68
2024/03/09 09:02:56;;;;;;;47.35;20.60;;;6.10;99.90;;;;;;5079821;28;20020;-68
2024/03/09 09:05:22;;;;;;;50.83;21.38;;;6.20;99.90;;;;;;5078137;28;20064;-68
2024/03/09 09:07:47;;;;;;;49.00;20.75;;;6.30;99.90;;;;;;5080114;28;20528;-69
2024/03/09 09:10:14;;;;;;;44.30;20.40;;;6.40;99.90;;;;;;5077888;28;20538;-69
2024/03/09 09:12:45;;;;;;;42.83;19.25;;;6.50;99.90;;;;;;5092349;28;20032;-68
2024/03/09 09:15:16;;;;;;;46.15;20.85;;;6.60;99.90;;;;;;5077250;28;20032;-70
2024/03/09 09:17:42;;;;;;;41.25;19.52;;;6.70;99.90;;;;;;5076629;28;20105;-69
2024/03/09 09:20:12;;;;;;;40.88;19.95;;;6.90;99.90;;;;;;5082236;28;20492;-69
2024/03/09 09:22:42;;;;;;;43.72;19.50;;;7.00;99.90;;;;;;5082205;28;20062;-69
2024/03/09 09:25:12;;;;;;;40.42;18.73;;;7.00;99.90;;;;;;5080912;28;20122;-69
2024/03/09 09:27:38;;;;;;;43.63;20.17;;;7.10;99.90;;;;;;5073458;28;20024;-69
2024/03/09 09:30:05;;;;;;;41.50;18.83;;;7.20;99.90;;;;;;5079669;28;20047;-69
2024/03/09 09:32:31;;;;;;;42.85;18.52;;;7.30;99.90;;;;;;5073092;28;20028;-69
2024/03/09 09:34:56;;;;;;;39.05;17.77;;;7.40;99.90;;;;;;5084062;28;20023;-69
2024/03/09 09:37:22;;;;;;;37.85;17.65;;;7.60;99.90;;;;;;5058623;28;20028;-69
2024/03/09 09:39:49;;;;;;;37.03;18.45;;;7.70;99.90;;;;;;5078589;28;20028;-70
2024/03/09 09:42:18;;;;;;;35.35;16.67;;;7.80;99.90;;;;;;5075659;28;20031;-67
2024/03/09 09:44:44;;;;;;;39.00;16.55;;;7.90;99.90;;;;;;5077796;28;20090;-67
2024/03/09 09:47:11;;;;;;;39.50;18.23;;;8.00;99.90;;;;;;5074198;28;20116;-68
2024/03/09 09:49:38;;;;;;;51.67;18.10;;;8.20;99.90;;;;;;5065542;28;20077;-68
2024/03/09 09:52:04;;;;;;;33.92;16.42;;;8.30;99.90;;;;;;5080792;28;20059;-67
2024/03/09 09:54:30;;;;;;;34.25;16.15;;;8.40;99.90;;;;;;5067687;28;20599;-68
2024/03/09 09:56:56;;;;;;;34.10;17.00;;;8.60;99.80;;;;;;5081558;28;20032;-68
2024/03/09 09:59:23;;;;;;;30.65;16.88;;;8.60;99.80;;;;;;5078485;28;20626;-68
2024/03/09 10:01:49;;;;;;;34.72;16.90;;;8.70;99.70;;;;;;5074061;28;20043;-68
2024/03/09 10:04:16;;;;;;;38.00;17.33;;;8.90;99.50;;;;;;5073124;28;20103;-68
2024/03/09 10:06:42;;;;;;;31.55;15.32;;;9.00;99.20;;;;;;5077895;28;20063;-67
2024/03/09 10:09:07;;;;;;;33.55;16.23;;;9.10;98.80;;;;;;5084330;28;20020;-68
2024/03/09 10:11:33;;;;;;;35.15;16.50;;;9.30;98.80;;;;;;5083419;28;20086;-68
2024/03/09 10:14:00;;;;;;;26.80;13.93;;;9.40;98.80;;;;;;5079790;28;20029;-68
2024/03/09 10:16:31;;;;;;;27.58;13.45;;;9.40;98.20;;;;;;5075107;28;20024;-68
2024/03/09 10:18:57;;;;;;;27.25;13.48;;;9.60;97.80;;;;;;5052935;28;20040;-68
2024/03/09 10:21:32;;;;;;;29.13;14.80;;;9.70;98.00;;;;;;5062625;28;20029;-68
2024/03/09 10:24:02;;;;;;;30.00;14.48;;;9.90;97.90;;;;;;5056080;28;20017;-69
2024/03/09 10:26:29;;;;;;;30.70;13.98;;;10.10;97.10;;;;;;5079458;28;20024;-69
2024/03/09 10:29:03;;;;;;;33.80;14.75;;;10.20;96.90;;;;;;5077187;28;20025;-69
2024/03/09 10:31:30;;;;;;;27.40;14.63;;;10.50;96.90;;;;;;5063620;28;20028;-71
2024/03/09 10:33:57;;;;;;;24.20;14.50;;;10.80;97.10;;;;;;5076145;28;20021;-69
2024/03/09 10:36:24;;;;;;;26.85;14.27;;;11.20;96.60;;;;;;5076103;28;20409;-69
2024/03/09 10:38:55;;;;;;;30.70;14.07;;;11.50;96.40;;;;;;5078875;28;20055;-70
2024/03/09 10:41:25;;;;;;;25.13;13.70;;;11.80;96.20;;;;;;5080962;28;20127;-70
2024/03/09 10:43:52;;;;;;;27.98;14.73;;;12.20;95.60;;;;;;5072771;28;20039;-70
2024/03/09 10:46:22;;;;;;;28.67;13.90;;;12.30;95.30;;;;;;5072965;28;20520;-71
2024/03/09 10:48:51;;;;;;;25.13;14.30;;;12.60;94.70;;;;;;5075027;28;20078;-69
2024/03/09 10:51:17;;;;;;;26.73;13.20;;;13.00;94.40;;;;;;5072452;28;20028;-70
2024/03/09 10:53:48;;;;;;;26.98;14.88;;;13.10;94.10;;;;;;5065772;28;20131;-70
2024/03/09 10:56:22;;;;;;;26.65;14.23;;;13.20;93.70;;;;;;5065792;28;20097;-71
2024/03/09 10:58:51;;;;;;;22.60;14.02;;;13.60;93.10;;;;;;5070884;28;20123;-71
2024/03/09 11:01:21;;;;;;;25.38;13.85;;;13.90;92.80;;;;;;5076114;28;20631;-70
2024/03/09 11:03:50;;;;;;;24.83;13.27;;;13.80;92.80;;;;;;5072684;28;20584;-67
2024/03/09 11:06:21;;;;;;;25.13;13.32;;;14.00;93.00;;;;;;5059483;28;20111;-70
2024/03/09 11:08:53;;;;;;;22.35;13.02;;;14.40;92.10;;;;;;5075478;28;20041;-70
2024/03/09 11:11:22;;;;;;;22.67;13.10;;;14.30;92.00;;;;;;5076868;28;20857;-70
2024/03/09 11:13:48;;;;;;;21.73;12.63;;;14.10;91.20;;;;;;5085675;28;20028;-71
2024/03/09 11:16:16;;;;;;;24.55;13.23;;;13.90;91.60;;;;;;5085805;28;20098;-70
2024/03/09 11:18:44;;;;;;;23.33;13.05;;;13.80;91.70;;;;;;5068474;28;20809;-70
2024/03/09 11:21:26;;;;;;;19.73;12.32;;;13.60;91.60;;;;;;5080797;28;20517;-70
2024/03/09 11:23:53;;;;;;;24.40;13.50;;;13.80;91.80;;;;;;5080002;28;20043;-71
2024/03/09 11:26:25;;;;;;;23.27;12.75;;;14.10;91.90;;;;;;5063837;28;20043;-70
2024/03/09 11:28:55;;;;;;;21.50;12.68;;;14.40;91.40;;;;;;5070617;28;20119;-71
2024/03/09 11:31:28;;;;;;;19.08;12.00;;;14.50;91.10;;;;;;5075403;28;20028;-70
2024/03/09 11:34:15;;;;;;;26.55;12.63;;;15.10;90.70;;;;;;5067856;28;20040;-70
2024/03/09 11:36:54;;;;;;;21.60;13.35;;;15.20;90.40;;;;;;5085267;28;20585;-70
2024/03/09 11:39:33;;;;;;;23.58;13.65;;;15.10;89.70;;;;;;5092622;28;20081;-71
2024/03/09 11:42:00;;;;;;;21.35;11.98;;;15.60;90.10;;;;;;5057560;28;20390;-71
2024/03/09 11:44:33;;;;;;;20.50;12.50;;;15.70;89.10;;;;;;5080535;28;20048;-70
2024/03/09 11:47:00;;;;;;;20.92;12.85;;;15.70;88.20;;;;;;5082041;28;20059;-72
2024/03/09 11:49:33;;;;;;;21.65;12.45;;;16.00;87.30;;;;;;5057092;28;20048;-70
2024/03/09 11:51:59;;;;;;;19.02;11.77;;;16.20;86.50;;;;;;5078389;28;20031;-71
2024/03/09 11:54:28;;;;;;;18.98;11.75;;;16.10;85.70;;;;;;5079456;28;20032;-69
2024/03/09 11:56:56;;;;;;;20.83;12.20;;;16.40;84.90;;;;;;5071226;28;20039;-70
2024/03/09 11:59:23;;;;;;;;;;;16.70;85.00;;;;;;5076874;28;20518;-70
2024/03/09 12:02:06;;;;;;;22.48;12.82;;;16.90;83.40;;;;;;5080438;28;20004;-71
2024/03/09 12:04:32;;;;;;;20.15;11.63;;;17.40;84.70;;;;;;5080730;28;20628;-69
2024/03/09 12:07:02;;;;;;;16.98;10.60;;;17.70;84.30;;;;;;5069819;28;20048;-71
2024/03/09 12:09:30;;;;;;;18.30;11.52;;;17.50;81.10;;;;;;5077232;28;20064;-71
2024/03/09 12:11:56;;;;;;;22.35;10.30;;;17.50;80.90;;;;;;5077136;28;20092;-71
2024/03/09 12:14:22;;;;;;;18.60;11.25;;;17.50;81.00;;;;;;5078560;28;20393;-70
2024/03/09 12:16:48;;;;;;;20.55;11.68;;;17.30;81.40;;;;;;5082168;28;20032;-71
2024/03/09 12:19:14;;;;;;;18.27;10.88;;;17.40;80.80;;;;;;5079269;28;20028;-71
2024/03/09 12:21:41;;;;;;;15.93;10.18;;;17.50;79.90;;;;;;5079347;28;20271;-71
2024/03/09 12:24:07;;;;;;;18.83;10.23;;;17.70;81.20;;;;;;5086538;28;20052;-72
2024/03/09 12:26:33;;;;;;;17.45;10.75;;;17.80;80.20;;;;;;5069231;28;20102;-70
2024/03/09 12:29:04;;;;;;;21.98;11.30;;;17.60;79.00;;;;;;5078075;28;20090;-71
2024/03/09 12:31:34;;;;;;;20.30;11.93;;;17.70;80.40;;;;;;5077530;28;20070;-70
2024/03/09 12:34:04;;;;;;;19.42;11.13;;;17.80;79.90;;;;;;5066567;28;20036;-71
2024/03/09 12:36:30;;;;;;;20.77;12.57;;;17.80;80.60;;;;;;5083952;28;20017;-70
2024/03/09 12:39:09;;;;;;;19.65;12.45;;;18.10;78.60;;;;;;5072158;28;20416;-72